sensor_id;sensor_type;location;lat;lon;timestamp;temperature;humidity
148;DHT22;142;50.652;12.216;2023-02-25T00:01:42;4.80;35.50
148;DHT22;142;50.652;12.216;2023-02-25T00:04:09;4.70;35.20
148;DHT22;142;50.652;12.216;2023-02-25T00:06:37;4.80;35.30
148;DHT22;142;50.652;12.216;2023-02-25T00:09:04;4.80;35.20
148;DHT22;142;50.652;12.216;2023-02-25T00:11:31;4.70;35.00
148;DHT22;142;50.652;12.216;2023-02-25T00:13:59;4.80;35.10
148;DHT22;142;50.652;12.216;2023-02-25T00:16:27;4.80;35.10
148;DHT22;142;50.652;12.216;2023-02-25T00:18:57;4.80;34.80
148;DHT22;142;50.652;12.216;2023-02-25T00:21:25;4.80;34.70
148;DHT22;142;50.652;12.216;2023-02-25T00:23:54;4.80;34.80
148;DHT22;142;50.652;12.216;2023-02-25T00:26:22;4.80;34.80
148;DHT22;142;50.652;12.216;2023-02-25T00:28:50;4.80;34.90
148;DHT22;142;50.652;12.216;2023-02-25T00:31:20;4.80;34.90
148;DHT22;142;50.652;12.216;2023-02-25T00:33:48;4.70;35.00
148;DHT22;142;50.652;12.216;2023-02-25T00:36:19;4.50;35.10
148;DHT22;142;50.652;12.216;2023-02-25T00:38:47;4.60;35.40
148;DHT22;142;50.652;12.216;2023-02-25T00:41:16;4.50;35.60
148;DHT22;142;50.652;12.216;2023-02-25T00:43:48;4.40;35.50
148;DHT22;142;50.652;12.216;2023-02-25T00:46:16;4.50;35.50
148;DHT22;142;50.652;12.216;2023-02-25T00:48:43;4.50;35.80
148;DHT22;142;50.652;12.216;2023-02-25T00:51:12;4.30;35.50
148;DHT22;142;50.652;12.216;2023-02-25T00:53:41;4.30;35.50
148;DHT22;142;50.652;12.216;2023-02-25T00:56:11;4.40;35.40
148;DHT22;142;50.652;12.216;2023-02-25T00:58:40;4.40;35.60
148;DHT22;142;50.652;12.216;2023-02-25T01:01:16;4.30;34.90
148;DHT22;142;50.652;12.216;2023-02-25T01:03:44;4.20;34.90
148;DHT22;142;50.652;12.216;2023-02-25T01:06:12;4.20;34.80
148;DHT22;142;50.652;12.216;2023-02-25T01:08:41;4.10;34.80
148;DHT22;142;50.652;12.216;2023-02-25T01:11:11;4.10;34.50
148;DHT22;142;50.652;12.216;2023-02-25T01:13:40;4.10;34.60
148;DHT22;142;50.652;12.216;2023-02-25T01:16:12;4.10;34.50
148;DHT22;142;50.652;12.216;2023-02-25T01:18:39;4.10;34.40
148;DHT22;142;50.652;12.216;2023-02-25T01:21:13;4.20;34.40
148;DHT22;142;50.652;12.216;2023-02-25T01:23:43;4.10;34.40
148;DHT22;142;50.652;12.216;2023-02-25T01:26:11;4.20;34.40
148;DHT22;142;50.652;12.216;2023-02-25T01:28:38;4.20;34.40
148;DHT22;142;50.652;12.216;2023-02-25T01:31:06;4.20;34.20
148;DHT22;142;50.652;12.216;2023-02-25T01:33:34;4.30;34.30
148;DHT22;142;50.652;12.216;2023-02-25T01:36:04;4.30;34.20
148;DHT22;142;50.652;12.216;2023-02-25T01:38:33;4.30;34.00
148;DHT22;142;50.652;12.216;2023-02-25T01:41:02;4.30;34.30
148;DHT22;142;50.652;12.216;2023-02-25T01:43:29;4.30;33.90
148;DHT22;142;50.652;12.216;2023-02-25T01:45:57;4.40;33.90
148;DHT22;142;50.652;12.216;2023-02-25T01:48:26;4.40;34.00
148;DHT22;142;50.652;12.216;2023-02-25T01:50:58;4.50;33.90
148;DHT22;142;50.652;12.216;2023-02-25T01:53:33;4.50;33.90
148;DHT22;142;50.652;12.216;2023-02-25T01:56:04;4.40;33.90
148;DHT22;142;50.652;12.216;2023-02-25T01:58:31;4.40;33.90
148;DHT22;142;50.652;12.216;2023-02-25T02:00:59;4.30;34.00
148;DHT22;142;50.652;12.216;2023-02-25T02:03:30;4.40;34.10
148;DHT22;142;50.652;12.216;2023-02-25T02:06:03;4.30;34.00
148;DHT22;142;50.652;12.216;2023-02-25T02:08:33;4.40;34.20
148;DHT22;142;50.652;12.216;2023-02-25T02:11:03;4.40;34.10
148;DHT22;142;50.652;12.216;2023-02-25T02:13:33;4.30;34.00
148;DHT22;142;50.652;12.216;2023-02-25T02:16:14;4.30;33.90
148;DHT22;142;50.652;12.216;2023-02-25T02:18:50;4.30;33.90
148;DHT22;142;50.652;12.216;2023-02-25T02:21:35;4.30;33.90
148;DHT22;142;50.652;12.216;2023-02-25T02:24:35;4.20;33.90
148;DHT22;142;50.652;12.216;2023-02-25T02:27:08;4.20;34.20
148;DHT22;142;50.652;12.216;2023-02-25T02:30:00;4.30;34.40
148;DHT22;142;50.652;12.216;2023-02-25T02:32:35;4.30;34.40
148;DHT22;142;50.652;12.216;2023-02-25T02:35:16;4.20;34.30
148;DHT22;142;50.652;12.216;2023-02-25T02:37:55;4.30;34.40
148;DHT22;142;50.652;12.216;2023-02-25T02:40:33;4.30;34.30
148;DHT22;142;50.652;12.216;2023-02-25T02:43:12;4.40;34.40
148;DHT22;142;50.652;12.216;2023-02-25T02:45:47;4.30;34.20
148;DHT22;142;50.652;12.216;2023-02-25T02:48:21;4.30;34.30
148;DHT22;142;50.652;12.216;2023-02-25T02:50:52;4.30;34.40
148;DHT22;142;50.652;12.216;2023-02-25T02:53:26;4.20;34.40
148;DHT22;142;50.652;12.216;2023-02-25T02:55:55;4.20;34.50
148;DHT22;142;50.652;12.216;2023-02-25T02:58:27;4.30;34.70
148;DHT22;142;50.652;12.216;2023-02-25T03:00:58;4.20;34.40
148;DHT22;142;50.652;12.216;2023-02-25T03:03:31;4.20;34.50
148;DHT22;142;50.652;12.216;2023-02-25T03:06:06;4.20;34.50
148;DHT22;142;50.652;12.216;2023-02-25T03:08:39;4.20;34.70
148;DHT22;142;50.652;12.216;2023-02-25T03:11:09;4.20;34.60
148;DHT22;142;50.652;12.216;2023-02-25T03:13:36;4.20;34.70
148;DHT22;142;50.652;12.216;2023-02-25T03:16:08;4.20;34.60
148;DHT22;142;50.652;12.216;2023-02-25T03:18:41;4.20;34.60
148;DHT22;142;50.652;12.216;2023-02-25T03:21:13;4.30;34.70
148;DHT22;142;50.652;12.216;2023-02-25T03:23:44;4.30;34.70
148;DHT22;142;50.652;12.216;2023-02-25T03:26:16;4.20;34.30
148;DHT22;142;50.652;12.216;2023-02-25T03:28:46;4.10;34.40
148;DHT22;142;50.652;12.216;2023-02-25T03:31:17;4.10;34.60
148;DHT22;142;50.652;12.216;2023-02-25T03:33:52;4.10;34.60
148;DHT22;142;50.652;12.216;2023-02-25T03:36:24;4.10;34.50
148;DHT22;142;50.652;12.216;2023-02-25T03:38:55;4.20;34.60
148;DHT22;142;50.652;12.216;2023-02-25T03:41:27;4.20;34.70
148;DHT22;142;50.652;12.216;2023-02-25T03:43:57;4.20;34.60
148;DHT22;142;50.652;12.216;2023-02-25T03:46:26;4.30;34.50
148;DHT22;142;50.652;12.216;2023-02-25T03:48:57;4.30;34.40
148;DHT22;142;50.652;12.216;2023-02-25T03:51:29;4.30;34.20
148;DHT22;142;50.652;12.216;2023-02-25T03:53:57;4.30;34.20
148;DHT22;142;50.652;12.216;2023-02-25T03:56:24;4.30;34.00
148;DHT22;142;50.652;12.216;2023-02-25T03:58:51;4.20;34.00
148;DHT22;142;50.652;12.216;2023-02-25T04:01:23;4.20;33.80
148;DHT22;142;50.652;12.216;2023-02-25T04:03:51;4.30;33.80
148;DHT22;142;50.652;12.216;2023-02-25T04:06:23;4.30;33.90
148;DHT22;142;50.652;12.216;2023-02-25T04:08:52;4.40;34.00
148;DHT22;142;50.652;12.216;2023-02-25T04:11:19;4.40;33.70
148;DHT22;142;50.652;12.216;2023-02-25T04:13:47;4.40;33.70
148;DHT22;142;50.652;12.216;2023-02-25T04:16:14;4.40;33.80
148;DHT22;142;50.652;12.216;2023-02-25T04:18:41;4.40;33.80
148;DHT22;142;50.652;12.216;2023-02-25T04:21:09;4.40;33.60
148;DHT22;142;50.652;12.216;2023-02-25T04:23:37;4.40;33.70
148;DHT22;142;50.652;12.216;2023-02-25T04:26:04;4.40;33.70
148;DHT22;142;50.652;12.216;2023-02-25T04:28:31;4.40;33.70
148;DHT22;142;50.652;12.216;2023-02-25T04:30:58;4.40;33.60
148;DHT22;142;50.652;12.216;2023-02-25T04:33:25;4.40;33.70
148;DHT22;142;50.652;12.216;2023-02-25T04:35:53;4.40;33.60
148;DHT22;142;50.652;12.216;2023-02-25T04:38:20;4.50;33.50
148;DHT22;142;50.652;12.216;2023-02-25T04:40:50;4.50;33.70
148;DHT22;142;50.652;12.216;2023-02-25T04:43:17;4.40;33.50
148;DHT22;142;50.652;12.216;2023-02-25T04:45:44;4.40;33.60
148;DHT22;142;50.652;12.216;2023-02-25T04:48:11;4.40;33.60
148;DHT22;142;50.652;12.216;2023-02-25T04:50:39;4.50;33.70
148;DHT22;142;50.652;12.216;2023-02-25T04:53:06;4.50;33.50
148;DHT22;142;50.652;12.216;2023-02-25T04:55:35;4.40;33.40
148;DHT22;142;50.652;12.216;2023-02-25T04:58:04;4.40;33.50
148;DHT22;142;50.652;12.216;2023-02-25T05:00:31;4.50;33.80
148;DHT22;142;50.652;12.216;2023-02-25T05:02:58;4.60;33.50
148;DHT22;142;50.652;12.216;2023-02-25T05:05:25;4.50;33.40
148;DHT22;142;50.652;12.216;2023-02-25T05:07:53;4.50;33.40
148;DHT22;142;50.652;12.216;2023-02-25T05:10:22;4.50;33.50
148;DHT22;142;50.652;12.216;2023-02-25T05:12:49;4.50;33.20
148;DHT22;142;50.652;12.216;2023-02-25T05:15:18;4.40;33.40
148;DHT22;142;50.652;12.216;2023-02-25T05:17:47;4.40;33.30
148;DHT22;142;50.652;12.216;2023-02-25T05:20:14;4.40;33.30
148;DHT22;142;50.652;12.216;2023-02-25T05:22:41;4.30;33.50
148;DHT22;142;50.652;12.216;2023-02-25T05:25:09;4.40;33.30
148;DHT22;142;50.652;12.216;2023-02-25T05:27:36;4.40;33.40
148;DHT22;142;50.652;12.216;2023-02-25T05:30:04;4.40;33.50
148;DHT22;142;50.652;12.216;2023-02-25T05:32:33;4.50;33.40
148;DHT22;142;50.652;12.216;2023-02-25T05:35:01;4.40;33.20
148;DHT22;142;50.652;12.216;2023-02-25T05:37:30;4.40;33.30
148;DHT22;142;50.652;12.216;2023-02-25T05:39:57;4.40;33.30
148;DHT22;142;50.652;12.216;2023-02-25T05:42:24;4.40;33.30
148;DHT22;142;50.652;12.216;2023-02-25T05:44:51;4.50;33.40
148;DHT22;142;50.652;12.216;2023-02-25T05:47:18;4.50;33.30
148;DHT22;142;50.652;12.216;2023-02-25T05:49:47;4.40;33.20
148;DHT22;142;50.652;12.216;2023-02-25T05:52:14;4.40;33.20
148;DHT22;142;50.652;12.216;2023-02-25T05:54:42;4.40;33.20
148;DHT22;142;50.652;12.216;2023-02-25T05:57:09;4.40;33.10
148;DHT22;142;50.652;12.216;2023-02-25T05:59:36;4.50;33.30
148;DHT22;142;50.652;12.216;2023-02-25T06:02:04;4.50;33.40
148;DHT22;142;50.652;12.216;2023-02-25T06:04:31;4.40;33.00
148;DHT22;142;50.652;12.216;2023-02-25T06:06:59;4.40;33.10
148;DHT22;142;50.652;12.216;2023-02-25T06:09:27;4.40;33.20
148;DHT22;142;50.652;12.216;2023-02-25T06:11:56;4.40;33.10
148;DHT22;142;50.652;12.216;2023-02-25T06:14:23;4.50;33.10
148;DHT22;142;50.652;12.216;2023-02-25T06:16:50;4.50;33.00
148;DHT22;142;50.652;12.216;2023-02-25T06:19:21;4.50;33.10
148;DHT22;142;50.652;12.216;2023-02-25T06:21:48;4.50;32.90
148;DHT22;142;50.652;12.216;2023-02-25T06:24:17;4.50;32.90
148;DHT22;142;50.652;12.216;2023-02-25T06:26:44;4.50;33.00
148;DHT22;142;50.652;12.216;2023-02-25T06:29:11;4.50;32.70
148;DHT22;142;50.652;12.216;2023-02-25T06:31:41;4.50;33.00
148;DHT22;142;50.652;12.216;2023-02-25T06:34:09;4.60;32.90
148;DHT22;142;50.652;12.216;2023-02-25T06:36:36;4.50;32.60
148;DHT22;142;50.652;12.216;2023-02-25T06:39:03;4.40;32.70
148;DHT22;142;50.652;12.216;2023-02-25T06:41:33;4.40;33.10
148;DHT22;142;50.652;12.216;2023-02-25T06:44:00;4.50;32.90
148;DHT22;142;50.652;12.216;2023-02-25T06:46:29;4.60;33.40
148;DHT22;142;50.652;12.216;2023-02-25T06:48:56;4.60;32.80
148;DHT22;142;50.652;12.216;2023-02-25T06:51:23;4.50;32.90
148;DHT22;142;50.652;12.216;2023-02-25T06:53:53;4.50;32.60
148;DHT22;142;50.652;12.216;2023-02-25T06:56:20;4.50;32.70
148;DHT22;142;50.652;12.216;2023-02-25T06:58:49;4.40;33.00
148;DHT22;142;50.652;12.216;2023-02-25T07:01:17;4.30;33.00
148;DHT22;142;50.652;12.216;2023-02-25T07:03:45;4.40;32.90
148;DHT22;142;50.652;12.216;2023-02-25T07:06:12;4.30;32.90
148;DHT22;142;50.652;12.216;2023-02-25T07:08:40;4.30;33.20
148;DHT22;142;50.652;12.216;2023-02-25T07:11:12;4.30;33.00
148;DHT22;142;50.652;12.216;2023-02-25T07:13:40;4.30;33.10
148;DHT22;142;50.652;12.216;2023-02-25T07:16:09;4.30;33.10
148;DHT22;142;50.652;12.216;2023-02-25T07:18:39;4.30;33.10
148;DHT22;142;50.652;12.216;2023-02-25T07:21:06;4.30;33.30
148;DHT22;142;50.652;12.216;2023-02-25T07:23:34;4.30;33.30
148;DHT22;142;50.652;12.216;2023-02-25T07:26:02;4.30;33.40
148;DHT22;142;50.652;12.216;2023-02-25T07:28:29;4.20;33.30
148;DHT22;142;50.652;12.216;2023-02-25T07:30:59;4.30;33.40
148;DHT22;142;50.652;12.216;2023-02-25T07:33:29;4.40;33.30
148;DHT22;142;50.652;12.216;2023-02-25T07:35:56;4.40;33.40
148;DHT22;142;50.652;12.216;2023-02-25T07:38:24;4.40;33.30
148;DHT22;142;50.652;12.216;2023-02-25T07:40:51;4.40;33.20
148;DHT22;142;50.652;12.216;2023-02-25T07:43:18;4.30;33.30
148;DHT22;142;50.652;12.216;2023-02-25T07:45:46;4.20;33.30
148;DHT22;142;50.652;12.216;2023-02-25T07:48:14;4.30;33.60
148;DHT22;142;50.652;12.216;2023-02-25T07:50:43;4.30;33.80
148;DHT22;142;50.652;12.216;2023-02-25T07:53:10;4.30;33.60
148;DHT22;142;50.652;12.216;2023-02-25T07:55:37;4.30;33.70
148;DHT22;142;50.652;12.216;2023-02-25T07:58:04;4.30;33.60
148;DHT22;142;50.652;12.216;2023-02-25T08:00:32;4.40;33.70
148;DHT22;142;50.652;12.216;2023-02-25T08:03:00;4.30;33.60
148;DHT22;142;50.652;12.216;2023-02-25T08:05:27;4.30;33.50
148;DHT22;142;50.652;12.216;2023-02-25T08:07:56;4.40;33.30
148;DHT22;142;50.652;12.216;2023-02-25T08:10:23;4.40;33.60
148;DHT22;142;50.652;12.216;2023-02-25T08:12:50;4.50;33.20
148;DHT22;142;50.652;12.216;2023-02-25T08:15:17;4.50;33.00
148;DHT22;142;50.652;12.216;2023-02-25T08:17:45;4.60;32.90
148;DHT22;142;50.652;12.216;2023-02-25T08:20:15;4.60;32.70
148;DHT22;142;50.652;12.216;2023-02-25T08:22:42;4.60;32.80
148;DHT22;142;50.652;12.216;2023-02-25T08:25:11;4.70;33.00
148;DHT22;142;50.652;12.216;2023-02-25T08:27:39;4.70;32.80
148;DHT22;142;50.652;12.216;2023-02-25T08:30:10;4.70;32.90
148;DHT22;142;50.652;12.216;2023-02-25T08:32:37;4.70;32.60
148;DHT22;142;50.652;12.216;2023-02-25T08:35:07;4.80;32.80
148;DHT22;142;50.652;12.216;2023-02-25T08:37:34;4.70;32.70
148;DHT22;142;50.652;12.216;2023-02-25T08:40:02;4.70;32.50
148;DHT22;142;50.652;12.216;2023-02-25T08:42:36;4.80;32.70
148;DHT22;142;50.652;12.216;2023-02-25T08:45:03;4.80;32.50
148;DHT22;142;50.652;12.216;2023-02-25T08:47:31;4.70;32.50
148;DHT22;142;50.652;12.216;2023-02-25T08:49:59;4.60;32.70
148;DHT22;142;50.652;12.216;2023-02-25T08:52:27;4.50;32.70
148;DHT22;142;50.652;12.216;2023-02-25T08:54:58;4.60;32.90
148;DHT22;142;50.652;12.216;2023-02-25T08:57:26;4.60;33.30
148;DHT22;142;50.652;12.216;2023-02-25T08:59:55;4.50;33.10
148;DHT22;142;50.652;12.216;2023-02-25T09:02:22;4.40;33.10
148;DHT22;142;50.652;12.216;2023-02-25T09:04:50;4.40;33.50
148;DHT22;142;50.652;12.216;2023-02-25T09:07:17;4.30;33.50
148;DHT22;142;50.652;12.216;2023-02-25T09:09:45;4.30;33.60
148;DHT22;142;50.652;12.216;2023-02-25T09:12:12;4.40;34.00
148;DHT22;142;50.652;12.216;2023-02-25T09:14:40;4.30;34.10
148;DHT22;142;50.652;12.216;2023-02-25T09:17:08;4.30;34.10
148;DHT22;142;50.652;12.216;2023-02-25T09:19:36;4.40;34.40
148;DHT22;142;50.652;12.216;2023-02-25T09:22:04;4.60;34.60
148;DHT22;142;50.652;12.216;2023-02-25T09:24:32;4.50;34.70
148;DHT22;142;50.652;12.216;2023-02-25T09:27:02;4.50;34.60
148;DHT22;142;50.652;12.216;2023-02-25T09:29:32;4.30;34.40
148;DHT22;142;50.652;12.216;2023-02-25T09:31:59;4.30;34.50
148;DHT22;142;50.652;12.216;2023-02-25T09:34:28;4.30;34.90
148;DHT22;142;50.652;12.216;2023-02-25T09:36:58;4.30;35.10
148;DHT22;142;50.652;12.216;2023-02-25T09:39:25;4.40;35.00
148;DHT22;142;50.652;12.216;2023-02-25T09:41:56;4.50;35.10
148;DHT22;142;50.652;12.216;2023-02-25T09:44:28;4.50;34.90
148;DHT22;142;50.652;12.216;2023-02-25T09:47:01;4.70;35.30
148;DHT22;142;50.652;12.216;2023-02-25T09:49:33;4.80;35.10
148;DHT22;142;50.652;12.216;2023-02-25T09:52:06;4.90;34.80
148;DHT22;142;50.652;12.216;2023-02-25T09:54:43;4.90;35.10
148;DHT22;142;50.652;12.216;2023-02-25T09:57:14;4.70;33.90
148;DHT22;142;50.652;12.216;2023-02-25T09:59:43;4.70;34.30
148;DHT22;142;50.652;12.216;2023-02-25T10:02:28;4.60;33.50
148;DHT22;142;50.652;12.216;2023-02-25T10:05:23;4.60;33.70
148;DHT22;142;50.652;12.216;2023-02-25T10:08:00;4.70;33.70
148;DHT22;142;50.652;12.216;2023-02-25T10:10:40;4.80;33.60
148;DHT22;142;50.652;12.216;2023-02-25T10:13:20;4.90;33.80
148;DHT22;142;50.652;12.216;2023-02-25T10:15:58;5.10;33.60
148;DHT22;142;50.652;12.216;2023-02-25T10:18:47;5.10;33.50
148;DHT22;142;50.652;12.216;2023-02-25T10:21:25;5.00;33.50
148;DHT22;142;50.652;12.216;2023-02-25T10:24:05;4.50;33.40
148;DHT22;142;50.652;12.216;2023-02-25T10:26:40;4.10;33.40
148;DHT22;142;50.652;12.216;2023-02-25T10:29:14;3.70;33.50
148;DHT22;142;50.652;12.216;2023-02-25T10:31:44;3.30;33.80
148;DHT22;142;50.652;12.216;2023-02-25T10:34:19;3.00;34.10
148;DHT22;142;50.652;12.216;2023-02-25T10:36:52;2.70;34.20
148;DHT22;142;50.652;12.216;2023-02-25T10:39:20;2.80;34.40
148;DHT22;142;50.652;12.216;2023-02-25T10:41:48;2.80;34.60
148;DHT22;142;50.652;12.216;2023-02-25T10:44:15;2.80;34.80
148;DHT22;142;50.652;12.216;2023-02-25T10:46:47;2.80;34.80
148;DHT22;142;50.652;12.216;2023-02-25T10:49:18;2.90;34.90
148;DHT22;142;50.652;12.216;2023-02-25T10:51:59;2.90;34.90
148;DHT22;142;50.652;12.216;2023-02-25T10:54:29;2.90;35.00
148;DHT22;142;50.652;12.216;2023-02-25T10:56:59;3.00;35.00
148;DHT22;142;50.652;12.216;2023-02-25T10:59:34;3.00;35.00
148;DHT22;142;50.652;12.216;2023-02-25T11:02:04;3.10;34.80
148;DHT22;142;50.652;12.216;2023-02-25T11:04:45;3.20;34.90
148;DHT22;142;50.652;12.216;2023-02-25T11:07:29;3.10;34.90
148;DHT22;142;50.652;12.216;2023-02-25T11:10:12;3.00;34.50
148;DHT22;142;50.652;12.216;2023-02-25T11:12:43;2.90;34.70
148;DHT22;142;50.652;12.216;2023-02-25T11:15:31;2.80;34.40
148;DHT22;142;50.652;12.216;2023-02-25T11:18:05;2.70;34.40
148;DHT22;142;50.652;12.216;2023-02-25T11:20:48;2.60;34.80
148;DHT22;142;50.652;12.216;2023-02-25T11:23:31;2.50;35.00
148;DHT22;142;50.652;12.216;2023-02-25T11:26:00;2.60;35.10
148;DHT22;142;50.652;12.216;2023-02-25T11:28:30;2.70;35.20
148;DHT22;142;50.652;12.216;2023-02-25T11:31:08;2.70;35.30
148;DHT22;142;50.652;12.216;2023-02-25T11:33:38;2.70;35.40
148;DHT22;142;50.652;12.216;2023-02-25T11:36:06;2.70;35.10
148;DHT22;142;50.652;12.216;2023-02-25T11:38:36;2.80;35.30
148;DHT22;142;50.652;12.216;2023-02-25T11:41:15;2.60;35.20
148;DHT22;142;50.652;12.216;2023-02-25T11:43:43;2.80;35.60
148;DHT22;142;50.652;12.216;2023-02-25T11:46:15;2.90;35.90
148;DHT22;142;50.652;12.216;2023-02-25T11:48:48;2.90;36.00
148;DHT22;142;50.652;12.216;2023-02-25T11:51:23;2.90;35.90
148;DHT22;142;50.652;12.216;2023-02-25T11:54:19;2.90;35.90
148;DHT22;142;50.652;12.216;2023-02-25T11:56:55;2.90;35.80
148;DHT22;142;50.652;12.216;2023-02-25T11:59:30;3.00;36.10
148;DHT22;142;50.652;12.216;2023-02-25T12:02:31;3.10;35.90
148;DHT22;142;50.652;12.216;2023-02-25T12:05:30;3.40;36.10
148;DHT22;142;50.652;12.216;2023-02-25T12:08:39;3.50;35.80
148;DHT22;142;50.652;12.216;2023-02-25T12:14:45;3.30;35.10
148;DHT22;142;50.652;12.216;2023-02-25T12:17:35;3.40;35.20
148;DHT22;142;50.652;12.216;2023-02-25T12:26:40;3.80;35.10
148;DHT22;142;50.652;12.216;2023-02-25T12:29:35;4.00;35.10
148;DHT22;142;50.652;12.216;2023-02-25T12:32:26;4.30;35.00
148;DHT22;142;50.652;12.216;2023-02-25T12:35:33;4.40;34.60
148;DHT22;142;50.652;12.216;2023-02-25T12:38:24;4.40;34.20
148;DHT22;142;50.652;12.216;2023-02-25T12:41:20;4.60;34.50
148;DHT22;142;50.652;12.216;2023-02-25T12:44:07;4.50;33.80
148;DHT22;142;50.652;12.216;2023-02-25T12:46:58;4.50;33.60
148;DHT22;142;50.652;12.216;2023-02-25T12:49:45;4.60;33.80
148;DHT22;142;50.652;12.216;2023-02-25T12:52:33;4.40;33.40
148;DHT22;142;50.652;12.216;2023-02-25T12:55:16;4.50;33.40
148;DHT22;142;50.652;12.216;2023-02-25T12:57:54;4.60;33.50
148;DHT22;142;50.652;12.216;2023-02-25T13:00:54;4.00;32.80
148;DHT22;142;50.652;12.216;2023-02-25T13:03:38;3.60;33.00
148;DHT22;142;50.652;12.216;2023-02-25T13:06:37;3.60;33.70
148;DHT22;142;50.652;12.216;2023-02-25T13:09:31;3.60;33.70
148;DHT22;142;50.652;12.216;2023-02-25T13:12:11;3.60;33.80
148;DHT22;142;50.652;12.216;2023-02-25T13:14:57;3.80;34.30
148;DHT22;142;50.652;12.216;2023-02-25T13:17:54;3.80;34.10
148;DHT22;142;50.652;12.216;2023-02-25T13:20:49;3.90;34.50
148;DHT22;142;50.652;12.216;2023-02-25T13:23:42;3.90;34.40
148;DHT22;142;50.652;12.216;2023-02-25T13:26:37;3.90;34.30
148;DHT22;142;50.652;12.216;2023-02-25T13:29:51;3.90;34.20
148;DHT22;142;50.652;12.216;2023-02-25T13:32:27;4.00;34.20
148;DHT22;142;50.652;12.216;2023-02-25T13:35:20;4.10;33.90
148;DHT22;142;50.652;12.216;2023-02-25T13:37:55;4.30;33.90
148;DHT22;142;50.652;12.216;2023-02-25T13:40:46;4.30;33.80
148;DHT22;142;50.652;12.216;2023-02-25T13:43:35;4.30;33.50
148;DHT22;142;50.652;12.216;2023-02-25T13:46:25;4.40;33.60
148;DHT22;142;50.652;12.216;2023-02-25T13:49:15;4.50;33.60
148;DHT22;142;50.652;12.216;2023-02-25T13:58:01;4.50;33.50
148;DHT22;142;50.652;12.216;2023-02-25T14:09:42;4.20;33.00
148;DHT22;142;50.652;12.216;2023-02-25T14:12:22;4.00;33.20
148;DHT22;142;50.652;12.216;2023-02-25T14:15:09;3.70;33.40
148;DHT22;142;50.652;12.216;2023-02-25T14:17:57;3.10;33.40
148;DHT22;142;50.652;12.216;2023-02-25T14:20:38;3.10;33.80
148;DHT22;142;50.652;12.216;2023-02-25T14:23:11;3.10;33.90
148;DHT22;142;50.652;12.216;2023-02-25T14:25:54;3.10;34.20
148;DHT22;142;50.652;12.216;2023-02-25T14:28:30;3.00;34.30
148;DHT22;142;50.652;12.216;2023-02-25T14:31:12;2.90;34.50
148;DHT22;142;50.652;12.216;2023-02-25T14:34:21;2.80;34.30
148;DHT22;142;50.652;12.216;2023-02-25T14:37:07;2.70;34.40
148;DHT22;142;50.652;12.216;2023-02-25T14:39:54;2.90;34.70
148;DHT22;142;50.652;12.216;2023-02-25T14:42:45;3.00;34.60
148;DHT22;142;50.652;12.216;2023-02-25T14:45:17;3.10;34.60
148;DHT22;142;50.652;12.216;2023-02-25T14:47:52;3.30;34.60
148;DHT22;142;50.652;12.216;2023-02-25T14:50:24;3.20;34.50
148;DHT22;142;50.652;12.216;2023-02-25T14:58:56;3.40;34.10
148;DHT22;142;50.652;12.216;2023-02-25T15:01:42;3.60;34.10
148;DHT22;142;50.652;12.216;2023-02-25T15:04:32;3.50;34.10
148;DHT22;142;50.652;12.216;2023-02-25T15:07:15;3.20;33.80
148;DHT22;142;50.652;12.216;2023-02-25T15:10:11;3.30;33.90
148;DHT22;142;50.652;12.216;2023-02-25T15:16:00;3.30;33.80
148;DHT22;142;50.652;12.216;2023-02-25T15:21:38;3.00;34.00
148;DHT22;142;50.652;12.216;2023-02-25T15:24:09;3.10;34.00
148;DHT22;142;50.652;12.216;2023-02-25T15:26:42;3.20;34.10
148;DHT22;142;50.652;12.216;2023-02-25T15:29:20;3.30;34.10
148;DHT22;142;50.652;12.216;2023-02-25T15:32:10;3.30;33.90
148;DHT22;142;50.652;12.216;2023-02-25T15:34:38;3.10;33.70
148;DHT22;142;50.652;12.216;2023-02-25T15:37:26;3.20;33.70
148;DHT22;142;50.652;12.216;2023-02-25T15:39:55;3.20;33.70
148;DHT22;142;50.652;12.216;2023-02-25T15:42:43;3.10;33.70
148;DHT22;142;50.652;12.216;2023-02-25T15:45:44;3.00;34.00
148;DHT22;142;50.652;12.216;2023-02-25T15:48:32;2.90;34.00
148;DHT22;142;50.652;12.216;2023-02-25T15:51:00;2.90;34.00
148;DHT22;142;50.652;12.216;2023-02-25T15:53:42;3.00;34.20
148;DHT22;142;50.652;12.216;2023-02-25T15:56:44;2.90;34.00
148;DHT22;142;50.652;12.216;2023-02-25T15:59:40;3.00;34.20
148;DHT22;142;50.652;12.216;2023-02-25T16:02:31;3.00;34.20
148;DHT22;142;50.652;12.216;2023-02-25T16:05:00;2.90;34.20
148;DHT22;142;50.652;12.216;2023-02-25T16:07:31;3.00;34.20
148;DHT22;142;50.652;12.216;2023-02-25T16:10:06;3.00;34.20
148;DHT22;142;50.652;12.216;2023-02-25T16:12:34;2.90;34.10
148;DHT22;142;50.652;12.216;2023-02-25T16:15:04;3.00;34.00
148;DHT22;142;50.652;12.216;2023-02-25T16:17:34;3.10;34.10
148;DHT22;142;50.652;12.216;2023-02-25T16:20:11;2.90;34.20
148;DHT22;142;50.652;12.216;2023-02-25T16:22:43;2.60;34.30
148;DHT22;142;50.652;12.216;2023-02-25T16:25:16;2.30;34.60
148;DHT22;142;50.652;12.216;2023-02-25T16:27:52;2.20;34.60
148;DHT22;142;50.652;12.216;2023-02-25T16:30:24;2.10;34.50
148;DHT22;142;50.652;12.216;2023-02-25T16:33:01;2.10;34.60
148;DHT22;142;50.652;12.216;2023-02-25T16:35:36;2.10;34.60
148;DHT22;142;50.652;12.216;2023-02-25T16:38:09;2.10;34.60
148;DHT22;142;50.652;12.216;2023-02-25T16:40:43;2.20;34.70
148;DHT22;142;50.652;12.216;2023-02-25T16:43:14;2.30;34.70
148;DHT22;142;50.652;12.216;2023-02-25T16:45:54;2.20;34.70
148;DHT22;142;50.652;12.216;2023-02-25T16:48:25;2.20;34.70
148;DHT22;142;50.652;12.216;2023-02-25T16:50:54;2.20;34.50
148;DHT22;142;50.652;12.216;2023-02-25T16:53:23;2.30;34.60
148;DHT22;142;50.652;12.216;2023-02-25T16:55:58;2.30;34.50
148;DHT22;142;50.652;12.216;2023-02-25T16:58:28;2.40;34.70
148;DHT22;142;50.652;12.216;2023-02-25T17:00:57;2.40;34.40
148;DHT22;142;50.652;12.216;2023-02-25T17:03:26;2.30;34.40
148;DHT22;142;50.652;12.216;2023-02-25T17:06:01;2.40;34.30
148;DHT22;142;50.652;12.216;2023-02-25T17:08:29;2.40;34.60
148;DHT22;142;50.652;12.216;2023-02-25T17:10:59;2.40;34.60
148;DHT22;142;50.652;12.216;2023-02-25T17:13:30;2.20;34.30
148;DHT22;142;50.652;12.216;2023-02-25T17:15:57;2.20;34.60
148;DHT22;142;50.652;12.216;2023-02-25T17:18:29;2.10;34.50
148;DHT22;142;50.652;12.216;2023-02-25T17:21:03;2.20;34.80
148;DHT22;142;50.652;12.216;2023-02-25T17:23:36;2.20;34.80
148;DHT22;142;50.652;12.216;2023-02-25T17:26:06;2.20;34.80
148;DHT22;142;50.652;12.216;2023-02-25T17:28:35;2.20;34.80
148;DHT22;142;50.652;12.216;2023-02-25T17:31:06;2.10;34.60
148;DHT22;142;50.652;12.216;2023-02-25T17:33:34;2.10;34.70
148;DHT22;142;50.652;12.216;2023-02-25T17:36:08;2.10;34.70
148;DHT22;142;50.652;12.216;2023-02-25T17:38:40;2.10;34.90
148;DHT22;142;50.652;12.216;2023-02-25T17:41:14;2.00;34.80
148;DHT22;142;50.652;12.216;2023-02-25T17:43:42;1.90;34.90
148;DHT22;142;50.652;12.216;2023-02-25T17:46:18;1.90;34.90
148;DHT22;142;50.652;12.216;2023-02-25T17:48:50;1.90;35.10
148;DHT22;142;50.652;12.216;2023-02-25T17:51:27;1.90;35.10
148;DHT22;142;50.652;12.216;2023-02-25T17:53:56;2.00;35.20